Time;durP1;ratioP1;P1;durP2;ratioP2;P2;SDS_P1;SDS_P2;PMS_P1;PMS_P2;Temp;Humidity;BMP_temperature;BMP_pressure;BME280_temperature;BME280_humidity;BME280_pressure;Samples;Min_cycle;Max_cycle;Signal;HPM_P1;HPM_P2
2022/04/28 00:00:29;;;;;;;4.05;1.52;;;8.10;99.40;;;;;;4990053;28;20133;-55
2022/04/28 00:02:56;;;;;;;12.38;2.38;;;8.10;99.40;;;;;;4986095;28;20051;-52
2022/04/28 00:05:23;;;;;;;6.07;2.08;;;8.10;99.50;;;;;;4989966;28;20050;-55
2022/04/28 00:07:50;;;;;;;3.85;1.35;;;8.10;99.50;;;;;;4989559;28;20049;-54
2022/04/28 00:10:17;;;;;;;8.63;1.77;;;8.00;99.60;;;;;;4985483;28;20089;-56
2022/04/28 00:12:44;;;;;;;8.30;1.95;;;8.00;99.60;;;;;;4642933;28;10000332;-56
2022/04/28 00:15:10;;;;;;;4.38;1.90;;;7.90;99.70;;;;;;4990005;28;20373;-57
2022/04/28 00:17:37;;;;;;;5.30;1.92;;;7.90;99.80;;;;;;4989387;28;20046;-56
2022/04/28 00:20:05;;;;;;;6.82;2.55;;;7.90;99.90;;;;;;4989565;28;20054;-55
2022/04/28 00:22:32;;;;;;;5.72;2.00;;;7.90;99.90;;;;;;4984352;28;20149;-54
2022/04/28 00:24:59;;;;;;;8.07;1.95;;;7.90;99.90;;;;;;4989427;28;20141;-54
2022/04/28 00:27:26;;;;;;;5.65;1.83;;;7.80;99.90;;;;;;4989270;28;20078;-56
2022/04/28 00:29:52;;;;;;;6.93;1.80;;;7.80;99.90;;;;;;4975825;28;20057;-56
2022/04/28 00:32:19;;;;;;;8.15;1.95;;;7.80;99.90;;;;;;4977676;28;20077;-56
2022/04/28 00:34:46;;;;;;;9.95;1.83;;;7.80;99.90;;;;;;4989308;28;20058;-57
2022/04/28 00:37:14;;;;;;;5.95;1.77;;;7.80;99.90;;;;;;4989256;28;20051;-53
2022/04/28 00:39:41;;;;;;;10.73;2.67;;;7.80;99.90;;;;;;4989269;28;20141;-55
2022/04/28 00:42:09;;;;;;;8.18;2.33;;;7.80;99.90;;;;;;4989154;28;20074;-57
2022/04/28 00:44:36;;;;;;;9.55;2.28;;;7.70;99.90;;;;;;4989071;28;20061;-56
2022/04/28 00:47:04;;;;;;;6.18;1.77;;;7.70;99.90;;;;;;5004064;28;20129;-56
2022/04/28 00:52:16;;;;;;;10.25;2.28;;;7.70;99.90;;;;;;4973686;28;20123;-56
2022/04/28 00:54:43;;;;;;;4.97;1.98;;;7.60;99.90;;;;;;4986980;28;20050;-57
2022/04/28 00:57:10;;;;;;;9.60;1.88;;;7.60;99.90;;;;;;5003637;28;20086;-58
2022/04/28 00:59:38;;;;;;;10.45;2.63;;;7.60;99.90;;;;;;4983977;28;20100;-57
2022/04/28 01:02:06;;;;;;;13.10;2.60;;;7.60;99.90;;;;;;4968554;28;20117;-50
2022/04/28 01:04:33;;;;;;;13.48;2.30;;;7.60;99.90;;;;;;4986638;28;20050;-54
2022/04/28 01:07:00;;;;;;;10.90;2.25;;;7.60;99.90;;;;;;4988984;28;20073;-52
2022/04/28 01:09:27;;;;;;;7.40;2.38;;;7.50;99.90;;;;;;4987452;28;20078;-54
2022/04/28 01:11:53;;;;;;;7.72;2.13;;;7.60;99.90;;;;;;4988802;28;20222;-55
2022/04/28 01:14:20;;;;;;;9.45;1.90;;;7.50;99.90;;;;;;5003459;28;20133;-55
2022/04/28 01:16:47;;;;;;;8.10;2.53;;;7.50;99.90;;;;;;4988541;28;20086;-54
2022/04/28 01:19:14;;;;;;;9.23;2.65;;;7.50;99.90;;;;;;4988517;28;20054;-52
2022/04/28 01:21:40;;;;;;;6.30;2.35;;;7.50;99.90;;;;;;4987992;28;20097;-53
2022/04/28 01:24:12;;;;;;;4.38;1.90;;;7.60;99.90;;;;;;4986970;28;20052;-55
2022/04/28 01:26:38;;;;;;;8.02;2.67;;;7.60;99.90;;;;;;4987213;28;20096;-54
2022/04/28 01:29:05;;;;;;;11.88;2.55;;;7.60;99.90;;;;;;5003505;28;20138;-54
2022/04/28 01:31:32;;;;;;;8.85;2.15;;;7.60;99.90;;;;;;4988137;28;20133;-52
2022/04/28 01:33:59;;;;;;;14.15;2.83;;;7.60;99.90;;;;;;4988341;28;20116;-53
2022/04/28 01:36:25;;;;;;;8.15;2.65;;;7.70;99.90;;;;;;4988449;28;20085;-54
2022/04/28 01:38:52;;;;;;;10.35;2.97;;;7.70;99.90;;;;;;4988395;28;20156;-54
2022/04/28 01:41:19;;;;;;;7.10;2.55;;;7.70;99.90;;;;;;4988226;28;20097;-54
2022/04/28 01:43:46;;;;;;;9.82;2.75;;;7.70;99.90;;;;;;4988310;28;20666;-57
2022/04/28 01:46:13;;;;;;;6.30;2.45;;;7.70;99.90;;;;;;4988066;28;20111;-53
2022/04/28 01:48:39;;;;;;;15.45;2.72;;;7.70;99.90;;;;;;4988307;28;20047;-55
2022/04/28 01:56:38;;;;;;;14.00;4.10;;;7.70;99.90;;;;;;4987156;28;20125;-57
2022/04/28 01:59:05;;;;;;;10.35;2.85;;;7.60;99.90;;;;;;4988405;28;20050;-55
2022/04/28 02:01:31;;;;;;;8.25;2.42;;;7.60;99.90;;;;;;4988098;28;20133;-53
2022/04/28 02:03:58;;;;;;;8.45;2.80;;;7.60;99.90;;;;;;4988260;28;20083;-55
2022/04/28 02:06:25;;;;;;;11.10;3.10;;;7.60;99.90;;;;;;4987930;28;20134;-56
2022/04/28 02:08:52;;;;;;;9.93;3.15;;;7.60;99.90;;;;;;4988460;28;20699;-56
2022/04/28 02:11:19;;;;;;;11.57;2.95;;;7.50;99.90;;;;;;4987682;28;20054;-57
2022/04/28 02:13:45;;;;;;;7.20;2.60;;;7.60;99.90;;;;;;4988236;28;20081;-55
2022/04/28 02:16:12;;;;;;;9.43;2.85;;;7.50;99.90;;;;;;4988060;28;20137;-55
2022/04/28 02:18:39;;;;;;;9.50;3.35;;;7.50;99.90;;;;;;4988261;28;20046;-55
2022/04/28 02:21:06;;;;;;;11.00;3.05;;;7.50;99.90;;;;;;4999658;28;20129;-56
2022/04/28 02:23:33;;;;;;;8.80;2.65;;;7.50;99.90;;;;;;4976185;28;20521;-53
2022/04/28 02:26:00;;;;;;;6.53;2.85;;;7.50;99.90;;;;;;4975756;28;20085;-54
2022/04/28 02:28:27;;;;;;;6.70;2.60;;;7.60;99.90;;;;;;4988206;28;20082;-55
2022/04/28 02:30:53;;;;;;;15.43;3.60;;;7.40;99.90;;;;;;4987747;28;20046;-55
2022/04/28 02:33:20;;;;;;;10.50;3.03;;;7.40;99.90;;;;;;4987927;28;20051;-53
2022/04/28 02:35:47;;;;;;;11.73;3.13;;;7.40;99.90;;;;;;4987867;28;20122;-54
2022/04/28 02:38:14;;;;;;;7.25;4.13;;;7.30;99.90;;;;;;4986687;28;20130;-53
2022/04/28 02:40:40;;;;;;;8.63;2.53;;;7.30;99.90;;;;;;4987789;28;20131;-56
2022/04/28 02:43:07;;;;;;;9.80;3.33;;;7.30;99.90;;;;;;4987631;28;20104;-53
2022/04/28 02:45:34;;;;;;;10.57;3.40;;;7.30;99.90;;;;;;4991717;28;20137;-54
2022/04/28 02:48:01;;;;;;;7.93;2.63;;;7.30;99.90;;;;;;4991538;28;20046;-54
2022/04/28 02:50:27;;;;;;;9.43;2.92;;;7.30;99.90;;;;;;4990091;28;20089;-54
2022/04/28 02:52:54;;;;;;;11.95;2.45;;;7.20;99.90;;;;;;4991093;28;20057;-54
2022/04/28 02:55:21;;;;;;;10.15;3.13;;;7.30;99.90;;;;;;4991586;28;20712;-55
2022/04/28 02:57:48;;;;;;;9.60;3.38;;;7.20;99.90;;;;;;4991389;28;20089;-54
2022/04/28 03:00:15;;;;;;;7.82;2.78;;;7.20;99.90;;;;;;4991608;28;20077;-54
2022/04/28 03:02:41;;;;;;;14.27;3.35;;;7.20;99.90;;;;;;4991197;28;20142;-55
2022/04/28 03:05:08;;;;;;;12.82;4.30;;;7.30;99.90;;;;;;4991557;28;20058;-55
2022/04/28 03:10:49;;;;;;;10.00;2.90;;;7.10;99.90;;;;;;4991392;28;20383;-55
2022/04/28 03:13:20;;;;;;;9.23;3.00;;;7.10;99.90;;;;;;5004115;28;20054;-54
2022/04/28 03:15:48;;;;;;;15.30;4.78;;;7.10;99.90;;;;;;5005585;28;20812;-56
2022/04/28 03:18:15;;;;;;;10.98;3.53;;;7.10;99.90;;;;;;4991260;28;20116;-55
2022/04/28 03:20:42;;;;;;;13.68;4.05;;;7.10;99.90;;;;;;4990732;28;20108;-56
2022/04/28 03:23:11;;;;;;;14.80;2.90;;;7.10;99.90;;;;;;4990812;28;20084;-56
2022/04/28 03:25:38;;;;;;;17.50;4.90;;;7.00;99.90;;;;;;4991062;28;20089;-54
2022/04/28 03:28:05;;;;;;;6.90;2.55;;;7.00;99.90;;;;;;4990790;28;20053;-54
2022/04/28 03:30:32;;;;;;;9.60;3.33;;;7.00;99.90;;;;;;4990996;28;20050;-51
2022/04/28 03:32:59;;;;;;;10.60;3.90;;;7.10;99.90;;;;;;4990887;28;20046;-52
2022/04/28 03:35:26;;;;;;;17.42;4.72;;;7.00;99.90;;;;;;4991093;28;20078;-52
2022/04/28 03:37:53;;;;;;;8.52;2.25;;;7.00;99.90;;;;;;4990708;28;20121;-55
2022/04/28 03:40:19;;;;;;;9.90;2.83;;;7.10;99.90;;;;;;4990469;28;20080;-53
2022/04/28 03:42:46;;;;;;;13.40;3.08;;;7.00;99.90;;;;;;4990597;28;20042;-54
2022/04/28 03:45:13;;;;;;;14.75;5.00;;;7.00;99.90;;;;;;4990812;28;20121;-55
2022/04/28 03:47:40;;;;;;;5.32;2.88;;;6.90;99.90;;;;;;4991026;28;20137;-55
2022/04/28 03:50:07;;;;;;;10.82;3.58;;;7.00;99.90;;;;;;4985754;28;20133;-56
2022/04/28 03:52:34;;;;;;;11.52;3.92;;;6.90;99.90;;;;;;4990560;28;20086;-54
2022/04/28 03:55:01;;;;;;;14.95;3.40;;;6.90;99.90;;;;;;4989867;28;20085;-54
2022/04/28 03:57:28;;;;;;;10.55;3.20;;;6.90;99.90;;;;;;4971069;28;20051;-54
2022/04/28 03:59:58;;;;;;;11.88;3.33;;;6.80;99.90;;;;;;4984583;28;20600;-56
2022/04/28 04:02:25;;;;;;;15.10;3.38;;;6.80;99.90;;;;;;4988267;28;20532;-55
2022/04/28 04:04:52;;;;;;;13.18;3.15;;;6.80;99.90;;;;;;4988543;28;20523;-56
2022/04/28 04:07:19;;;;;;;6.53;2.60;;;6.80;99.90;;;;;;4990291;28;20081;-55
2022/04/28 04:09:46;;;;;;;11.75;3.25;;;6.80;99.90;;;;;;4989951;28;20080;-56
2022/04/28 04:12:18;;;;;;;10.30;2.92;;;6.70;99.90;;;;;;4990405;28;20135;-55
2022/04/28 04:14:45;;;;;;;8.50;2.67;;;6.70;99.90;;;;;;4989911;28;20125;-56
2022/04/28 04:17:12;;;;;;;15.48;3.42;;;6.70;99.90;;;;;;4990364;28;20081;-58
2022/04/28 04:19:38;;;;;;;10.25;3.72;;;6.70;99.90;;;;;;4989283;28;20453;-56
2022/04/28 04:22:05;;;;;;;12.75;3.08;;;6.60;99.90;;;;;;4990148;28;20066;-53
2022/04/28 04:24:32;;;;;;;14.43;3.33;;;6.60;99.90;;;;;;4989693;28;20077;-56
2022/04/28 04:26:59;;;;;;;12.27;3.22;;;6.50;99.90;;;;;;4989642;28;20113;-55
2022/04/28 04:29:26;;;;;;;9.93;3.10;;;6.50;99.90;;;;;;4989884;28;20081;-56
2022/04/28 04:34:38;;;;;;;11.90;3.72;;;6.40;99.90;;;;;;4988476;28;20042;-54
2022/04/28 04:37:05;;;;;;;12.18;3.40;;;6.50;99.90;;;;;;4989416;28;20069;-56
2022/04/28 04:39:32;;;;;;;15.43;3.20;;;6.40;99.90;;;;;;4989818;28;20126;-55
2022/04/28 04:41:59;;;;;;;9.40;3.28;;;6.50;99.90;;;;;;4989331;28;20050;-55
2022/04/28 04:44:26;;;;;;;12.70;3.70;;;6.40;99.90;;;;;;4989616;28;20096;-55
2022/04/28 04:46:53;;;;;;;9.40;3.17;;;6.40;99.90;;;;;;4988990;28;20105;-55
2022/04/28 04:49:19;;;;;;;9.35;3.10;;;6.40;99.90;;;;;;4988846;28;20078;-56
2022/04/28 04:51:46;;;;;;;11.82;3.28;;;6.40;99.90;;;;;;4988878;28;20046;-56
2022/04/28 04:54:13;;;;;;;6.57;2.47;;;6.40;99.90;;;;;;4989617;28;20046;-55
2022/04/28 04:56:40;;;;;;;8.68;3.78;;;6.40;99.90;;;;;;4988967;28;20053;-54
2022/04/28 04:59:06;;;;;;;11.00;3.72;;;6.50;99.90;;;;;;4988913;28;20153;-55
2022/04/28 05:01:33;;;;;;;16.30;3.75;;;6.50;99.90;;;;;;4987451;28;20568;-55
2022/04/28 05:04:00;;;;;;;8.90;3.25;;;6.50;99.90;;;;;;4988895;28;20461;-56
2022/04/28 05:06:27;;;;;;;16.75;3.50;;;6.50;99.90;;;;;;4987984;28;20484;-55
2022/04/28 05:08:55;;;;;;;10.70;4.30;;;6.50;99.90;;;;;;4989164;28;20050;-56
2022/04/28 05:11:22;;;;;;;17.02;4.68;;;6.60;99.90;;;;;;4988496;28;20077;-60
2022/04/28 05:13:48;;;;;;;13.77;3.35;;;6.60;99.90;;;;;;4988999;28;20511;-55
2022/04/28 05:16:15;;;;;;;10.95;3.92;;;6.70;99.90;;;;;;4988614;28;20074;-56
2022/04/28 05:18:42;;;;;;;10.30;4.30;;;6.60;99.90;;;;;;4988453;28;20046;-57
2022/04/28 05:21:09;;;;;;;8.50;3.70;;;6.70;99.90;;;;;;4973631;28;20050;-54
2022/04/28 05:23:36;;;;;;;9.48;5.47;;;6.70;99.90;;;;;;4985782;28;20050;-57
2022/04/28 05:26:03;;;;;;;10.82;3.90;;;6.70;99.90;;;;;;4988942;28;20181;-55
2022/04/28 05:28:30;;;;;;;9.02;4.60;;;6.80;99.90;;;;;;4988244;28;20488;-54
2022/04/28 05:30:57;;;;;;;6.57;2.78;;;6.80;99.90;;;;;;4988637;28;20137;-55
2022/04/28 05:33:23;;;;;;;12.85;4.88;;;7.00;99.90;;;;;;4987063;28;20049;-55
2022/04/28 05:35:50;;;;;;;13.68;3.33;;;6.90;99.90;;;;;;4976108;28;20623;-54
2022/04/28 05:38:17;;;;;;;12.02;3.80;;;7.00;99.90;;;;;;4949049;28;20094;-54
2022/04/28 05:40:44;;;;;;;19.23;3.58;;;7.00;99.90;;;;;;4982750;28;20545;-55
2022/04/28 05:45:56;;;;;;;5.72;2.95;;;7.10;99.90;;;;;;4986780;28;20082;-50
2022/04/28 05:48:23;;;;;;;21.30;4.13;;;7.20;99.90;;;;;;4987923;28;20053;-52
2022/04/28 05:50:50;;;;;;;15.07;3.78;;;7.20;99.90;;;;;;4972620;28;20082;-54
2022/04/28 05:53:16;;;;;;;15.07;3.78;;;7.30;99.90;;;;;;4988017;28;20089;-53
2022/04/28 05:55:43;;;;;;;15.63;3.90;;;7.40;99.90;;;;;;4987959;28;20100;-55
2022/04/28 05:58:10;;;;;;;11.82;3.85;;;7.40;99.90;;;;;;4987767;28;20144;-54
2022/04/28 06:00:37;;;;;;;15.98;3.88;;;7.40;99.90;;;;;;4988214;28;20081;-55
2022/04/28 06:03:04;;;;;;;6.28;3.65;;;7.50;99.90;;;;;;4987635;28;20129;-57
2022/04/28 06:05:31;;;;;;;10.32;3.58;;;7.60;99.90;;;;;;4987723;28;20556;-55
2022/04/28 06:07:57;;;;;;;11.77;3.60;;;7.70;99.90;;;;;;4976851;28;20191;-57
2022/04/28 06:10:24;;;;;;;13.40;3.72;;;7.70;99.90;;;;;;4987528;28;20145;-57
2022/04/28 06:12:51;;;;;;;13.43;3.70;;;7.80;99.90;;;;;;4987238;28;20054;-56
2022/04/28 06:15:18;;;;;;;13.23;3.45;;;7.90;99.90;;;;;;4987698;28;20077;-55
2022/04/28 06:17:45;;;;;;;11.20;3.67;;;7.90;99.90;;;;;;4989414;28;20161;-57
2022/04/28 06:20:11;;;;;;;16.20;3.90;;;8.10;99.90;;;;;;4987725;28;20085;-53
2022/04/28 06:22:44;;;;;;;13.07;4.38;;;8.20;99.90;;;;;;4972195;28;20077;-54
2022/04/28 06:25:11;;;;;;;10.77;3.67;;;8.30;99.90;;;;;;4988990;28;20053;-57
2022/04/28 06:27:38;;;;;;;10.10;3.92;;;8.30;99.90;;;;;;4991295;28;20121;-57
2022/04/28 06:30:06;;;;;;;8.32;3.70;;;8.40;99.90;;;;;;4991237;28;20129;-62
2022/04/28 06:32:33;;;;;;;6.95;3.50;;;8.50;99.90;;;;;;4991094;28;20081;-56
2022/04/28 06:34:59;;;;;;;5.88;3.25;;;8.60;99.90;;;;;;4989577;28;20124;-59
2022/04/28 06:37:26;;;;;;;6.95;3.10;;;8.70;99.90;;;;;;5005645;28;20131;-57
2022/04/28 06:39:53;;;;;;;12.02;3.22;;;8.80;99.90;;;;;;4990727;28;20141;-57
2022/04/28 06:42:20;;;;;;;9.07;3.75;;;8.90;99.90;;;;;;4987715;28;20050;-57
2022/04/28 06:44:47;;;;;;;9.65;3.53;;;9.00;99.90;;;;;;4990103;28;20042;-58
2022/04/28 06:47:14;;;;;;;10.07;3.20;;;9.00;99.90;;;;;;4989984;28;20056;-52
2022/04/28 06:49:41;;;;;;;12.02;3.88;;;9.10;99.90;;;;;;4987529;28;20301;-57
2022/04/28 06:52:08;;;;;;;12.50;3.22;;;9.10;99.90;;;;;;4989136;28;20256;-56
2022/04/28 06:54:34;;;;;;;4.45;3.40;;;9.20;99.90;;;;;;4984623;28;20578;-56
2022/04/28 06:57:03;;;;;;;8.63;3.53;;;9.30;99.90;;;;;;4987993;28;20054;-59
2022/04/28 06:59:30;;;;;;;13.50;4.00;;;9.30;99.90;;;;;;4987336;28;20042;-57
2022/04/28 07:01:56;;;;;;;7.00;2.60;;;9.30;99.90;;;;;;4982861;28;20086;-58
2022/04/28 07:04:24;;;;;;;8.15;4.22;;;9.30;99.90;;;;;;4985373;28;20093;-57
2022/04/28 07:06:50;;;;;;;12.05;3.10;;;9.40;99.90;;;;;;4989959;28;20084;-57
2022/04/28 07:09:18;;;;;;;11.60;2.85;;;9.50;99.90;;;;;;4990180;28;20062;-55
2022/04/28 07:11:46;;;;;;;8.95;3.20;;;9.50;99.90;;;;;;4988531;28;20046;-56
2022/04/28 07:14:13;;;;;;;11.48;3.40;;;9.60;99.90;;;;;;4990489;28;20109;-56
2022/04/28 07:16:40;;;;;;;10.20;3.33;;;9.60;99.90;;;;;;4989590;28;20046;-54
2022/04/28 07:19:07;;;;;;;8.23;2.72;;;9.60;99.90;;;;;;4985326;28;20046;-55
2022/04/28 07:21:37;;;;;;;21.60;4.55;;;9.70;99.90;;;;;;4983346;28;20046;-53
2022/04/28 07:24:04;;;;;;;8.30;3.83;;;9.70;99.90;;;;;;4990158;28;20089;-57
2022/04/28 07:26:31;;;;;;;11.48;3.50;;;9.80;99.90;;;;;;4988714;28;20089;-51
2022/04/28 07:28:57;;;;;;;6.53;2.97;;;9.80;99.90;;;;;;4989168;28;20129;-54
2022/04/28 07:31:24;;;;;;;10.13;2.83;;;9.70;99.90;;;;;;4989446;28;20493;-56
2022/04/28 07:33:51;;;;;;;9.07;3.40;;;9.80;99.90;;;;;;4990007;28;20058;-55
2022/04/28 07:36:18;;;;;;;11.43;3.40;;;9.90;99.90;;;;;;4989272;28;20473;-56
2022/04/28 07:38:45;;;;;;;12.13;3.10;;;9.90;99.90;;;;;;4989587;28;20082;-55
2022/04/28 07:41:13;;;;;;;14.25;3.95;;;9.90;99.90;;;;;;4989494;28;20086;-56
2022/04/28 07:43:40;;;;;;;10.82;3.30;;;9.90;99.90;;;;;;4989043;28;20351;-55
2022/04/28 07:46:07;;;;;;;10.65;3.42;;;10.00;99.90;;;;;;4986695;28;20104;-57
2022/04/28 07:48:34;;;;;;;10.45;3.58;;;10.10;99.90;;;;;;4988006;28;20628;-54
2022/04/28 07:51:00;;;;;;;9.02;3.25;;;10.10;99.90;;;;;;4971847;28;20082;-56
2022/04/28 07:53:27;;;;;;;6.47;2.85;;;10.20;99.90;;;;;;4979528;28;20554;-59
2022/04/28 07:58:43;;;;;;;13.07;3.22;;;10.30;99.90;;;;;;4983122;28;20085;-58
2022/04/28 08:01:24;;;;;;;;;;;10.40;99.90;;;;;;4971291;28;20050;-54
2022/04/28 08:03:51;;;;;;;7.28;3.10;;;10.40;98.80;;;;;;4989333;28;19932;-56
2022/04/28 08:06:19;;;;;;;12.32;3.78;;;10.40;99.90;;;;;;4989538;28;20050;-57
2022/04/28 08:08:46;;;;;;;12.00;3.33;;;10.50;99.90;;;;;;4989212;28;20069;-55
2022/04/28 08:11:13;;;;;;;18.08;6.35;;;10.50;99.90;;;;;;4989282;28;20117;-55
2022/04/28 08:13:40;;;;;;;9.70;3.85;;;10.60;99.90;;;;;;4988851;28;20100;-55
2022/04/28 08:16:06;;;;;;;14.70;4.30;;;10.70;99.90;;;;;;4971920;28;20050;-56
2022/04/28 08:18:35;;;;;;;8.55;3.00;;;10.70;99.80;;;;;;4988852;28;20505;-56
2022/04/28 08:21:02;;;;;;;11.75;3.90;;;10.80;99.40;;;;;;4988806;28;20058;-55
2022/04/28 08:23:29;;;;;;;13.52;3.30;;;10.90;99.40;;;;;;4987785;28;20073;-55
2022/04/28 08:25:56;;;;;;;9.45;3.28;;;10.80;99.20;;;;;;4988993;28;20161;-55
2022/04/28 08:28:22;;;;;;;8.95;3.80;;;10.80;99.20;;;;;;4987521;28;20133;-55
2022/04/28 08:30:49;;;;;;;13.73;3.17;;;10.80;99.40;;;;;;4988409;28;20046;-60
2022/04/28 08:33:16;;;;;;;11.63;3.50;;;10.90;99.40;;;;;;4988044;28;20046;-56
2022/04/28 08:35:43;;;;;;;6.07;3.10;;;10.90;99.20;;;;;;4987821;28;20553;-57
2022/04/28 08:38:10;;;;;;;9.65;3.55;;;10.90;99.20;;;;;;5002811;28;20092;-57
2022/04/28 08:40:37;;;;;;;8.48;3.45;;;11.00;99.10;;;;;;4987504;28;20129;-56
2022/04/28 08:43:04;;;;;;;14.15;3.80;;;11.00;99.00;;;;;;4987744;28;20070;-56
2022/04/28 08:45:39;;;;;;;5.75;3.33;;;11.00;99.30;;;;;;4989222;28;20057;-56
2022/04/28 08:48:07;;;;;;;10.15;3.80;;;11.10;99.00;;;;;;4988675;28;20553;-56
2022/04/28 08:50:34;;;;;;;7.75;4.20;;;11.20;99.20;;;;;;4981456;28;20137;-58
2022/04/28 08:53:01;;;;;;;20.08;4.63;;;11.20;98.90;;;;;;4969729;28;20054;-56
2022/04/28 08:55:27;;;;;;;10.07;3.13;;;11.20;99.00;;;;;;4986861;28;20073;-54
2022/04/28 08:57:54;;;;;;;12.02;3.92;;;11.30;99.10;;;;;;4989051;28;20062;-55
2022/04/28 09:00:21;;;;;;;10.90;3.60;;;11.30;99.00;;;;;;5003647;28;20050;-56
2022/04/28 09:02:48;;;;;;;12.15;4.32;;;11.30;98.90;;;;;;4988892;28;20062;-54
2022/04/28 09:05:17;;;;;;;8.63;4.07;;;11.30;98.90;;;;;;4988842;28;20125;-57
2022/04/28 09:07:44;;;;;;;11.52;3.88;;;11.40;99.00;;;;;;4987306;28;20046;-53
2022/04/28 09:10:29;;;;;;;15.13;3.95;;;11.40;98.80;;;;;;4988623;28;20429;-55
2022/04/28 09:12:58;;;;;;;10.60;3.75;;;11.40;98.20;;;;;;4988819;28;20322;-55
2022/04/28 09:15:24;;;;;;;8.00;3.05;;;11.50;98.80;;;;;;4988471;28;20180;-57
2022/04/28 09:17:51;;;;;;;8.40;3.65;;;11.40;98.50;;;;;;4988666;28;20133;-56
2022/04/28 09:20:21;;;;;;;13.93;3.70;;;11.50;98.70;;;;;;4987563;28;20074;-57
2022/04/28 09:22:52;;;;;;;18.67;4.18;;;11.70;98.90;;;;;;4988720;28;20078;-59
2022/04/28 09:25:20;;;;;;;13.13;3.88;;;11.80;98.50;;;;;;4987045;28;20073;-56
2022/04/28 09:27:50;;;;;;;17.83;4.45;;;11.80;98.30;;;;;;4988428;28;20081;-57
2022/04/28 09:30:20;;;;;;;10.68;4.35;;;11.90;98.30;;;;;;4988261;28;20074;-54
2022/04/28 09:32:50;;;;;;;7.65;3.60;;;11.90;97.90;;;;;;5003163;28;20124;-56
2022/04/28 09:35:27;;;;;;;7.57;3.38;;;11.90;97.90;;;;;;4986963;28;20046;-60
2022/04/28 09:37:54;;;;;;;15.25;3.42;;;11.90;98.10;;;;;;4988465;28;20254;-56
2022/04/28 09:43:06;;;;;;;9.68;3.92;;;11.90;97.50;;;;;;4987029;28;20078;-57
2022/04/28 09:45:33;;;;;;;10.13;4.28;;;11.90;97.70;;;;;;4987937;28;20141;-55
2022/04/28 09:48:01;;;;;;;10.90;5.13;;;12.00;98.00;;;;;;4988285;28;20133;-56
2022/04/28 09:50:29;;;;;;;8.95;3.90;;;12.10;97.90;;;;;;4987125;28;20046;-55
2022/04/28 09:53:03;;;;;;;7.78;3.88;;;12.20;98.00;;;;;;4981067;28;20054;-57
2022/04/28 09:55:30;;;;;;;13.93;4.00;;;12.30;97.80;;;;;;4994438;28;20077;-54
2022/04/28 09:57:56;;;;;;;9.07;4.20;;;12.30;97.70;;;;;;4993291;28;20128;-59
2022/04/28 10:00:23;;;;;;;8.02;3.65;;;12.30;97.60;;;;;;4994713;28;20054;-57
2022/04/28 10:02:50;;;;;;;19.38;4.13;;;12.40;97.30;;;;;;4994709;28;20085;-55
2022/04/28 10:05:18;;;;;;;7.68;3.95;;;12.40;97.50;;;;;;4993340;28;20057;-56
2022/04/28 10:07:45;;;;;;;8.10;3.65;;;12.50;97.40;;;;;;4994148;28;20129;-55
2022/04/28 10:10:12;;;;;;;11.07;4.45;;;12.60;97.40;;;;;;4993381;28;20057;-54
2022/04/28 10:12:39;;;;;;;15.90;4.93;;;12.50;97.40;;;;;;4994136;28;20493;-56
2022/04/28 10:15:06;;;;;;;17.60;4.57;;;12.50;97.20;;;;;;4994852;28;20084;-56
2022/04/28 10:17:46;;;;;;;11.18;4.20;;;12.60;97.50;;;;;;4993092;28;20051;-55
2022/04/28 10:20:33;;;;;;;9.68;4.43;;;12.70;96.90;;;;;;5008459;28;20093;-56
2022/04/28 10:32:22;;;;;;;12.88;4.45;;;12.70;96.70;;;;;;4989823;28;20046;-54
2022/04/28 10:34:33;;;;;;;16.70;4.95;;;13.10;96.80;;;;;;4985024;28;20093;-52
2022/04/28 10:37:06;;;;;;;12.68;6.32;;;13.20;96.80;;;;;;4994206;28;20181;-53
2022/04/28 10:39:39;;;;;;;23.63;4.33;;;13.30;96.80;;;;;;4994393;28;20085;-56
2022/04/28 10:42:25;;;;;;;20.25;5.55;;;13.40;96.50;;;;;;4994101;28;20280;-55
2022/04/28 10:44:56;;;;;;;14.68;5.40;;;13.50;95.90;;;;;;4984615;28;20100;-56
2022/04/28 10:47:35;;;;;;;12.52;5.63;;;13.50;96.20;;;;;;4994148;28;20564;-57
2022/04/28 10:50:03;;;;;;;14.65;5.28;;;13.60;95.30;;;;;;4984958;28;20050;-58
2022/04/28 10:52:30;;;;;;;15.80;5.22;;;13.70;96.30;;;;;;4994184;28;20077;-55
2022/04/28 10:55:01;;;;;;;9.15;4.30;;;13.70;96.00;;;;;;4993912;28;20489;-57
2022/04/28 10:57:36;;;;;;;12.27;5.03;;;13.70;95.80;;;;;;4993405;28;20796;-57
2022/04/28 11:00:04;;;;;;;19.17;5.45;;;13.80;95.40;;;;;;4994120;28;20085;-57
2022/04/28 11:02:36;;;;;;;8.73;5.88;;;13.90;95.90;;;;;;4992536;28;20077;-57
2022/04/28 11:05:30;;;;;;;11.60;6.18;;;13.80;95.30;;;;;;4987013;28;20050;-56
2022/04/28 11:07:59;;;;;;;10.52;5.07;;;13.80;94.40;;;;;;4990570;28;20140;-55
2022/04/28 11:10:27;;;;;;;11.35;5.13;;;13.90;95.90;;;;;;4990798;28;20038;-54
2022/04/28 11:12:54;;;;;;;18.05;11.13;;;13.80;95.70;;;;;;5005530;28;20080;-54
2022/04/28 11:15:21;;;;;;;19.48;5.63;;;13.80;95.80;;;;;;4989809;28;20069;-57
2022/04/28 11:17:48;;;;;;;13.95;4.68;;;13.90;95.90;;;;;;4989675;28;20051;-55
2022/04/28 11:20:16;;;;;;;13.23;4.95;;;14.00;95.50;;;;;;4979145;28;20073;-55
2022/04/28 11:22:43;;;;;;;14.00;5.40;;;14.00;95.70;;;;;;4989643;28;20074;-54
2022/04/28 11:25:12;;;;;;;10.55;4.82;;;14.10;95.70;;;;;;4990229;28;20078;-57
2022/04/28 11:27:39;;;;;;;11.55;5.25;;;14.20;95.50;;;;;;4990597;28;20206;-54
2022/04/28 11:30:09;;;;;;;7.30;4.57;;;14.30;95.50;;;;;;4990438;28;20153;-55
2022/04/28 11:32:44;;;;;;;12.30;4.88;;;14.30;95.40;;;;;;4990752;28;20062;-55
2022/04/28 11:35:10;;;;;;;10.40;5.55;;;14.30;95.30;;;;;;4990141;28;20134;-54
2022/04/28 11:37:38;;;;;;;16.38;5.05;;;14.30;95.50;;;;;;4989369;28;20413;-56
2022/04/28 11:40:06;;;;;;;13.50;5.50;;;14.30;95.50;;;;;;4990314;28;20168;-55
2022/04/28 11:42:59;;;;;;;13.52;4.78;;;14.30;95.40;;;;;;4990690;28;20042;-56
2022/04/28 11:45:27;;;;;;;15.20;5.60;;;14.30;95.30;;;;;;4990284;28;20054;-56
2022/04/28 11:47:56;;;;;;;16.38;5.72;;;14.40;95.70;;;;;;4990299;28;20137;-54
2022/04/28 11:50:34;;;;;;;16.52;5.70;;;14.50;95.40;;;;;;4989636;28;20116;-54
2022/04/28 11:53:04;;;;;;;21.67;5.93;;;14.40;95.00;;;;;;4990193;28;20517;-54
2022/04/28 11:55:33;;;;;;;15.95;6.40;;;14.40;95.30;;;;;;4988682;28;20050;-56
2022/04/28 11:58:00;;;;;;;11.90;6.10;;;14.50;95.20;;;;;;5004783;28;20076;-55
2022/04/28 12:00:27;;;;;;;18.00;6.43;;;14.50;95.20;;;;;;4988664;28;20084;-56
2022/04/28 12:02:54;;;;;;;14.15;4.75;;;14.60;95.20;;;;;;4990082;28;20086;-57
2022/04/28 12:05:25;;;;;;;6.65;5.88;;;14.50;94.90;;;;;;4989698;28;20106;-56
2022/04/28 12:07:52;;;;;;;10.00;5.53;;;14.50;95.10;;;;;;4989863;28;20469;-56
2022/04/28 12:16:16;;;;;;;12.88;5.55;;;14.70;94.80;;;;;;4988002;28;20062;-55
2022/04/28 12:21:32;;;;;;;8.32;5.50;;;14.90;94.20;;;;;;4988054;28;20088;-58
2022/04/28 12:24:00;;;;;;;22.55;6.28;;;14.90;94.30;;;;;;4988542;28;20050;-55
2022/04/28 12:26:36;;;;;;;14.80;6.90;;;14.90;94.30;;;;;;4989027;28;20042;-58
2022/04/28 12:29:11;;;;;;;16.98;6.60;;;14.90;94.30;;;;;;5003429;28;20140;-62
2022/04/28 12:31:38;;;;;;;12.80;5.35;;;14.90;93.90;;;;;;4989725;28;20113;-55
2022/04/28 12:34:13;;;;;;;14.65;5.53;;;15.00;94.70;;;;;;4989238;28;20046;-56
2022/04/28 12:36:48;;;;;;;13.55;6.43;;;15.00;94.20;;;;;;4989266;28;20446;-53
2022/04/28 12:39:19;;;;;;;14.52;4.97;;;15.10;94.00;;;;;;4989534;28;20058;-56
2022/04/28 12:41:48;;;;;;;12.55;5.72;;;15.00;94.30;;;;;;4989339;28;20184;-57
2022/04/28 12:44:14;;;;;;;15.15;5.25;;;15.00;94.30;;;;;;4989186;28;20054;-57
2022/04/28 12:46:49;;;;;;;10.73;4.70;;;15.00;94.60;;;;;;4988954;28;20118;-56
2022/04/28 12:49:16;;;;;;;13.55;4.30;;;15.10;94.30;;;;;;4988314;28;20046;-55
2022/04/28 12:51:47;;;;;;;11.70;5.35;;;15.00;94.30;;;;;;4988916;28;20042;-54
2022/04/28 12:54:19;;;;;;;12.43;5.45;;;15.10;94.10;;;;;;4988911;28;20116;-54
2022/04/28 12:57:00;;;;;;;11.00;5.90;;;15.00;94.10;;;;;;4987726;28;20144;-54
2022/04/28 12:59:36;;;;;;;12.23;5.18;;;15.00;93.90;;;;;;4988693;28;20057;-54
2022/04/28 13:02:04;;;;;;;18.40;5.55;;;14.90;93.60;;;;;;4988729;28;20157;-56
2022/04/28 13:04:35;;;;;;;14.20;5.28;;;14.90;94.50;;;;;;4988833;28;20050;-56
2022/04/28 13:07:04;;;;;;;13.90;5.40;;;14.90;94.20;;;;;;4988778;28;20104;-52
2022/04/28 13:09:31;;;;;;;11.38;4.82;;;14.90;94.20;;;;;;4984390;28;20077;-56
2022/04/28 13:11:57;;;;;;;15.18;5.28;;;14.80;94.40;;;;;;4988723;28;20057;-56
2022/04/28 13:14:24;;;;;;;14.30;5.10;;;14.80;94.50;;;;;;4987775;28;20085;-54
2022/04/28 13:16:51;;;;;;;12.85;5.80;;;14.80;94.30;;;;;;4989050;28;20409;-55
2022/04/28 13:19:22;;;;;;;8.75;5.07;;;14.90;94.40;;;;;;4979874;28;20053;-60
2022/04/28 13:21:49;;;;;;;14.40;5.75;;;14.90;94.20;;;;;;4988668;28;20470;-56
2022/04/28 13:24:17;;;;;;;15.23;5.47;;;14.90;94.20;;;;;;4988868;28;20050;-56
2022/04/28 13:26:44;;;;;;;15.80;6.43;;;14.80;94.50;;;;;;4987871;28;20066;-55
2022/04/28 13:29:12;;;;;;;16.60;6.95;;;14.80;94.20;;;;;;4988590;28;20137;-57